Amery, WI

5:15 PM CDT on April 21, 2015 (GMT -0500)
KWIBALSA2 | | Change Station
CLOSE
Current Station
Personal Weather Station
Location: Balsam Lake, WI
Elevation: 1191 ft
Nearby Weather Stations

Elev 1191 ft 45.46 °N, 92.41 °W | Updated 4 seconds ago

Snow
Snow
38.7 °F
Feels Like 33 °F
N
8.1
Wind Variable Wind from WSW
Gusts 8.1 mph

Today
High -- | Low -- °F
--% Chance of Precip.
Yesterday
High -- | Low -- °F
Precip. -- in
6:14 AM 8:02 PM
Waxing Crescent, 13% visible
Pressure 29.65 in
Visibility 7.0 miles
Clouds Scattered Clouds 3100 ft
Scattered Clouds 3700 ft
Mostly Cloudy 4200 ft
Windchill 33 °F
Dew Point 2 °F
Humidity 21%
Rainfall 0.04 in
Snow Depth Not available.
UV 2 out of 12
Pollen 8.40 out of 12
Air Quality Not available.
Flu Activity Local Activity
METAR KOEO 212155Z AUTO 30012G24KT 7SM -SN SCT031 SCT037 BKN042 02/M02 A2965 RMK AO2 T00231021

More Conditions Fewer Conditions

Pressure 29.65 in
Visibility 7.0 miles
Clouds Scattered Clouds 3100 ft
Scattered Clouds 3700 ft
Mostly Cloudy 4200 ft
Windchill 33 °F
Dew Point 2 °F
Humidity 21%
Rainfall 0.04 in
Snow Depth Not available.
UV 2 out of 12
Pollen 8.40 out of 12
Air Quality Not available.
Flu Activity Local Activity
METAR KOEO 212155Z AUTO 30012G24KT 7SM -SN SCT031 SCT037 BKN042 02/M02 A2965 RMK AO2 T00231021

More Conditions Fewer Conditions

Nowcast | as of 4:08 PM CDT on April 21, 2015

Scattered light snow showers will continue across portions of southern Minnesota prior to 7 PM. Most of the activity will remain east of a line...from Carlos to Hutchinson...to Owatonna. Visibilities may drop to between 2 and 3 miles in a few isolated heavier snow showers. All of the activity is trekking toward the southeast at 35 mph. Although most locations will only incur trace amounts of snowfall...a few isolated areas may pick a few tenths of an inch of snow. Snow showers will decrease in coverage and intensity after the 9 PM hour.

×

10-Day Weather Forecast

Almanac

Astronomy

Apr. 21, 2015 Rise Set
Actual Time
Civil Twilight
Nautical Twilight
Astronomical Twilight
Moon
Length of Visible Light
Length of Day
Tomorrow will be .
, % of the Moon is Illuminated

Today's Extremes

State Highs State Lows

Community

WunderPhotos

Upload Photos

1,815,562 photos uploaded!

WunderBlogs® & News

Nearby

Air Quality

  Air Quality AQ Index Pollutant
Not available.

Snow Depth

Station Depth Elevation

Earthquake Activity

City Distance Mag. Time & Date
Minimum magnitude displayed is 2.5.

Coastal Water Temperatures

Place Temperature

Stations

Nearby Weather Stations

Station Location Temp. Windchill Dew Point Humidity Wind Precip. Elev Updated Type